sensor_id;sensor_type;location;lat;lon;timestamp;pressure;altitude;pressure_sealevel;temperature;humidity
73016;BME280;61893;50.074;14.440;2023-04-01T00:00:59;96802.44;;;8.77;80.98
73016;BME280;61893;50.074;14.440;2023-04-01T00:03:42;96799.41;;;8.66;80.92
73016;BME280;61893;50.074;14.440;2023-04-01T00:06:16;96806.56;;;8.65;81.26
73016;BME280;61893;50.074;14.440;2023-04-01T00:08:59;96803.09;;;8.65;81.07
73016;BME280;61893;50.074;14.440;2023-04-01T00:11:54;96803.16;;;8.71;79.93
73016;BME280;61893;50.074;14.440;2023-04-01T00:14:20;96803.25;;;8.78;80.24
73016;BME280;61893;50.074;14.440;2023-04-01T00:16:46;96805.28;;;8.76;79.78
73016;BME280;61893;50.074;14.440;2023-04-01T00:19:18;96808.00;;;8.68;79.72
73016;BME280;61893;50.074;14.440;2023-04-01T00:22:16;96810.59;;;8.76;80.13
73016;BME280;61893;50.074;14.440;2023-04-01T00:24:42;96804.06;;;8.93;78.90
73016;BME280;61893;50.074;14.440;2023-04-01T00:27:10;96802.25;;;8.94;78.85
73016;BME280;61893;50.074;14.440;2023-04-01T00:30:02;96799.59;;;8.79;78.84
73016;BME280;61893;50.074;14.440;2023-04-01T00:32:45;96790.63;;;8.80;78.55
73016;BME280;61893;50.074;14.440;2023-04-01T00:35:45;96788.63;;;8.82;78.27
73016;BME280;61893;50.074;14.440;2023-04-01T00:38:36;96793.56;;;8.85;77.99
73016;BME280;61893;50.074;14.440;2023-04-01T00:41:03;96800.94;;;8.90;77.70
73016;BME280;61893;50.074;14.440;2023-04-01T00:43:29;96798.88;;;8.85;77.39
73016;BME280;61893;50.074;14.440;2023-04-01T00:45:58;96791.66;;;8.79;77.70
73016;BME280;61893;50.074;14.440;2023-04-01T00:48:33;96791.16;;;8.75;77.96
73016;BME280;61893;50.074;14.440;2023-04-01T00:51:20;96792.53;;;8.86;78.12
73016;BME280;61893;50.074;14.440;2023-04-01T00:54:04;96806.75;;;8.78;77.67
73016;BME280;61893;50.074;14.440;2023-04-01T00:57:41;96796.41;;;8.69;77.95
73016;BME280;61893;50.074;14.440;2023-04-01T01:01:18;96791.38;;;8.74;78.27
73016;BME280;61893;50.074;14.440;2023-04-01T01:04:44;96791.25;;;8.52;78.75
73016;BME280;61893;50.074;14.440;2023-04-01T01:12:16;96798.22;;;8.39;79.30
73016;BME280;61893;50.074;14.440;2023-04-01T01:15:36;96794.44;;;8.33;79.76
73016;BME280;61893;50.074;14.440;2023-04-01T01:18:27;96796.06;;;8.34;79.61
73016;BME280;61893;50.074;14.440;2023-04-01T01:27:06;96796.31;;;8.47;79.15
73016;BME280;61893;50.074;14.440;2023-04-01T01:29:59;96793.53;;;8.41;79.31
73016;BME280;61893;50.074;14.440;2023-04-01T01:35:27;96791.38;;;8.44;79.34
73016;BME280;61893;50.074;14.440;2023-04-01T01:38:36;96792.78;;;8.32;79.58
73016;BME280;61893;50.074;14.440;2023-04-01T01:41:16;96788.06;;;8.42;79.28
73016;BME280;61893;50.074;14.440;2023-04-01T01:43:47;96787.63;;;8.39;79.52
73016;BME280;61893;50.074;14.440;2023-04-01T01:46:32;96780.50;;;8.54;79.32
73016;BME280;61893;50.074;14.440;2023-04-01T01:49:02;96788.06;;;8.42;79.29
73016;BME280;61893;50.074;14.440;2023-04-01T01:51:33;96774.53;;;8.52;79.14
73016;BME280;61893;50.074;14.440;2023-04-01T01:53:59;96781.69;;;8.51;79.41
73016;BME280;61893;50.074;14.440;2023-04-01T01:56:30;96782.56;;;8.44;79.68
73016;BME280;61893;50.074;14.440;2023-04-01T01:59:17;96775.94;;;8.48;80.06
73016;BME280;61893;50.074;14.440;2023-04-01T02:02:08;96778.94;;;8.45;80.23
73016;BME280;61893;50.074;14.440;2023-04-01T02:05:02;96791.00;;;8.47;80.06
73016;BME280;61893;50.074;14.440;2023-04-01T02:07:42;96791.19;;;8.46;80.15
73016;BME280;61893;50.074;14.440;2023-04-01T02:10:15;96785.88;;;8.46;80.31
73016;BME280;61893;50.074;14.440;2023-04-01T02:12:42;96780.81;;;8.36;80.51
73016;BME280;61893;50.074;14.440;2023-04-01T02:15:22;96790.41;;;8.37;81.22
73016;BME280;61893;50.074;14.440;2023-04-01T02:18:05;96790.06;;;8.40;80.96
73016;BME280;61893;50.074;14.440;2023-04-01T02:20:31;96789.19;;;8.48;80.15
73016;BME280;61893;50.074;14.440;2023-04-01T02:23:03;96788.81;;;8.51;80.42
73016;BME280;61893;50.074;14.440;2023-04-01T02:25:51;96789.25;;;8.40;80.75
73016;BME280;61893;50.074;14.440;2023-04-01T02:28:34;96799.38;;;8.36;80.88
73016;BME280;61893;50.074;14.440;2023-04-01T02:31:05;96798.28;;;8.30;81.45
73016;BME280;61893;50.074;14.440;2023-04-01T02:33:31;96798.28;;;8.30;81.62
73016;BME280;61893;50.074;14.440;2023-04-01T02:36:04;96801.09;;;8.29;81.48
73016;BME280;61893;50.074;14.440;2023-04-01T02:38:36;96811.69;;;8.29;81.78
73016;BME280;61893;50.074;14.440;2023-04-01T02:41:12;96809.28;;;8.04;82.61
73016;BME280;61893;50.074;14.440;2023-04-01T02:43:38;96810.28;;;8.18;82.48
73016;BME280;61893;50.074;14.440;2023-04-01T02:46:04;96815.03;;;8.08;82.94
73016;BME280;61893;50.074;14.440;2023-04-01T02:48:41;96807.03;;;8.31;82.21
73016;BME280;61893;50.074;14.440;2023-04-01T02:51:34;96818.31;;;8.10;82.76
73016;BME280;61893;50.074;14.440;2023-04-01T02:54:03;96814.59;;;8.19;82.92
73016;BME280;61893;50.074;14.440;2023-04-01T02:56:48;96821.63;;;8.27;82.50
73016;BME280;61893;50.074;14.440;2023-04-01T02:59:15;96828.72;;;8.11;83.11
73016;BME280;61893;50.074;14.440;2023-04-01T03:01:41;96837.63;;;8.19;82.77
73016;BME280;61893;50.074;14.440;2023-04-01T03:04:08;96837.97;;;8.16;83.21
73016;BME280;61893;50.074;14.440;2023-04-01T03:06:34;96833.56;;;8.08;83.32
73016;BME280;61893;50.074;14.440;2023-04-01T03:09:32;96834.63;;;8.22;83.13
73016;BME280;61893;50.074;14.440;2023-04-01T03:11:57;96838.44;;;8.19;82.49
73016;BME280;61893;50.074;14.440;2023-04-01T03:14:29;96840.44;;;8.17;82.52
73016;BME280;61893;50.074;14.440;2023-04-01T03:17:12;96844.25;;;8.15;82.63
73016;BME280;61893;50.074;14.440;2023-04-01T03:19:38;96842.66;;;8.28;82.01
73016;BME280;61893;50.074;14.440;2023-04-01T03:22:27;96841.38;;;8.24;82.10
73016;BME280;61893;50.074;14.440;2023-04-01T03:25:13;96835.16;;;8.32;81.71
73016;BME280;61893;50.074;14.440;2023-04-01T03:28:32;96842.75;;;8.35;81.65
73016;BME280;61893;50.074;14.440;2023-04-01T03:31:57;96847.13;;;8.28;82.21
73016;BME280;61893;50.074;14.440;2023-04-01T03:34:48;96846.88;;;8.38;80.95
73016;BME280;61893;50.074;14.440;2023-04-01T03:37:18;96847.59;;;8.31;81.14
73016;BME280;61893;50.074;14.440;2023-04-01T03:39:44;96849.06;;;8.34;80.97
73016;BME280;61893;50.074;14.440;2023-04-01T03:42:26;96848.91;;;8.35;80.82
73016;BME280;61893;50.074;14.440;2023-04-01T03:44:52;96853.88;;;8.39;80.52
73016;BME280;61893;50.074;14.440;2023-04-01T03:47:27;96855.84;;;8.37;80.52
73016;BME280;61893;50.074;14.440;2023-04-01T03:49:55;96851.34;;;8.37;80.54
73016;BME280;61893;50.074;14.440;2023-04-01T03:52:22;96855.59;;;8.46;79.70
73016;BME280;61893;50.074;14.440;2023-04-01T03:55:09;96859.28;;;8.45;79.93
73016;BME280;61893;50.074;14.440;2023-04-01T03:57:40;96861.91;;;8.45;80.05
73016;BME280;61893;50.074;14.440;2023-04-01T04:00:07;96862.47;;;8.55;79.29
73016;BME280;61893;50.074;14.440;2023-04-01T04:02:36;96865.09;;;8.41;79.48
73016;BME280;61893;50.074;14.440;2023-04-01T04:05:11;96858.19;;;8.31;79.64
73016;BME280;61893;50.074;14.440;2023-04-01T04:07:39;96864.75;;;8.44;79.13
73016;BME280;61893;50.074;14.440;2023-04-01T04:10:08;96870.88;;;8.44;79.58
73016;BME280;61893;50.074;14.440;2023-04-01T04:12:42;96869.78;;;8.39;79.47
73016;BME280;61893;50.074;14.440;2023-04-01T04:15:23;96878.75;;;8.29;79.74
73016;BME280;61893;50.074;14.440;2023-04-01T04:17:48;96872.56;;;8.37;79.60
73016;BME280;61893;50.074;14.440;2023-04-01T04:20:32;96882.31;;;8.45;78.85
73016;BME280;61893;50.074;14.440;2023-04-01T04:23:22;96882.31;;;8.45;78.78
73016;BME280;61893;50.074;14.440;2023-04-01T04:26:14;96890.78;;;8.40;79.24
73016;BME280;61893;50.074;14.440;2023-04-01T04:28:41;96888.44;;;8.45;78.98
73016;BME280;61893;50.074;14.440;2023-04-01T04:31:06;96889.75;;;8.41;79.45
73016;BME280;61893;50.074;14.440;2023-04-01T04:33:33;96887.59;;;8.45;79.19
73016;BME280;61893;50.074;14.440;2023-04-01T04:35:59;96888.72;;;8.50;78.93
73016;BME280;61893;50.074;14.440;2023-04-01T04:38:26;96887.53;;;8.53;78.44
73016;BME280;61893;50.074;14.440;2023-04-01T04:40:55;96888.16;;;8.32;79.80
73016;BME280;61893;50.074;14.440;2023-04-01T04:43:21;96896.38;;;8.45;79.20
73016;BME280;61893;50.074;14.440;2023-04-01T04:45:47;96891.44;;;8.42;79.31
73016;BME280;61893;50.074;14.440;2023-04-01T04:48:30;96883.28;;;8.44;79.56
73016;BME280;61893;50.074;14.440;2023-04-01T04:51:36;96879.81;;;8.43;79.60
73016;BME280;61893;50.074;14.440;2023-04-01T04:54:05;96880.84;;;8.42;79.92
73016;BME280;61893;50.074;14.440;2023-04-01T04:56:43;96884.19;;;8.36;79.81
73016;BME280;61893;50.074;14.440;2023-04-01T04:59:22;96886.63;;;8.38;80.09
73016;BME280;61893;50.074;14.440;2023-04-01T05:01:56;96893.81;;;8.29;80.45
73016;BME280;61893;50.074;14.440;2023-04-01T05:04:52;96883.34;;;8.35;79.95
73016;BME280;61893;50.074;14.440;2023-04-01T05:07:33;96890.41;;;8.43;79.76
73016;BME280;61893;50.074;14.440;2023-04-01T05:10:08;96889.19;;;8.31;80.32
73016;BME280;61893;50.074;14.440;2023-04-01T05:12:54;96896.47;;;8.29;80.42
73016;BME280;61893;50.074;14.440;2023-04-01T05:15:41;96898.41;;;8.35;80.34
73016;BME280;61893;50.074;14.440;2023-04-01T05:19:02;96904.38;;;8.37;79.51
73016;BME280;61893;50.074;14.440;2023-04-01T05:21:50;96903.09;;;8.33;79.44
73016;BME280;61893;50.074;14.440;2023-04-01T05:24:57;96901.84;;;8.44;79.46
73016;BME280;61893;50.074;14.440;2023-04-01T05:27:41;96899.38;;;8.42;79.71
73016;BME280;61893;50.074;14.440;2023-04-01T05:30:26;96902.69;;;8.44;79.43
73016;BME280;61893;50.074;14.440;2023-04-01T05:32:52;96912.44;;;8.44;79.75
73016;BME280;61893;50.074;14.440;2023-04-01T05:35:25;96905.25;;;8.52;79.34
73016;BME280;61893;50.074;14.440;2023-04-01T05:37:51;96904.94;;;8.70;78.84
73016;BME280;61893;50.074;14.440;2023-04-01T05:40:58;96901.28;;;8.71;78.25
73016;BME280;61893;50.074;14.440;2023-04-01T05:43:25;96907.16;;;8.82;78.11
73016;BME280;61893;50.074;14.440;2023-04-01T05:45:54;96911.44;;;8.83;78.04
73016;BME280;61893;50.074;14.440;2023-04-01T05:48:20;96908.59;;;8.84;77.97
73016;BME280;61893;50.074;14.440;2023-04-01T05:51:03;96910.25;;;9.00;77.29
73016;BME280;61893;50.074;14.440;2023-04-01T05:53:36;96910.09;;;9.16;76.68
73016;BME280;61893;50.074;14.440;2023-04-01T05:56:16;96906.63;;;9.31;75.98
73016;BME280;61893;50.074;14.440;2023-04-01T05:59:10;96913.63;;;9.38;75.77
73016;BME280;61893;50.074;14.440;2023-04-01T06:01:47;96907.16;;;9.11;76.22
73016;BME280;61893;50.074;14.440;2023-04-01T06:05:19;96907.97;;;9.12;76.70
73016;BME280;61893;50.074;14.440;2023-04-01T06:08:13;96910.53;;;8.90;77.78
73016;BME280;61893;50.074;14.440;2023-04-01T07:10:20;96938.22;;;10.13;73.71
73016;BME280;61893;50.074;14.440;2023-04-01T07:13:48;96932.94;;;9.98;72.91
73016;BME280;61893;50.074;14.440;2023-04-01T07:19:09;96940.19;;;9.89;71.80
73016;BME280;61893;50.074;14.440;2023-04-01T07:22:34;96935.56;;;10.13;71.71
73016;BME280;61893;50.074;14.440;2023-04-01T07:26:00;96946.03;;;10.79;69.29
73016;BME280;61893;50.074;14.440;2023-04-01T07:37:31;96956.06;;;11.40;64.96
73016;BME280;61893;50.074;14.440;2023-04-01T07:40:45;96946.09;;;11.20;65.37
73016;BME280;61893;50.074;14.440;2023-04-01T08:05:27;96972.47;;;11.15;64.35
73016;BME280;61893;50.074;14.440;2023-04-01T08:23:28;96982.19;;;11.01;63.53
73016;BME280;61893;50.074;14.440;2023-04-01T08:26:44;96981.28;;;11.44;62.13
73016;BME280;61893;50.074;14.440;2023-04-01T09:00:36;96977.53;;;11.73;57.86
73016;BME280;61893;50.074;14.440;2023-04-01T10:14:24;96983.97;;;12.33;55.34
73016;BME280;61893;50.074;14.440;2023-04-01T10:20:46;96987.44;;;12.40;55.67
73016;BME280;61893;50.074;14.440;2023-04-01T10:35:25;96992.81;;;12.67;53.86
73016;BME280;61893;50.074;14.440;2023-04-01T11:30:27;96979.25;;;13.55;52.05
73016;BME280;61893;50.074;14.440;2023-04-01T12:18:47;96994.63;;;14.25;51.34
73016;BME280;61893;50.074;14.440;2023-04-01T12:36:02;97000.53;;;13.95;52.27
73016;BME280;61893;50.074;14.440;2023-04-01T12:55:40;96987.75;;;14.04;51.04
73016;BME280;61893;50.074;14.440;2023-04-01T13:04:47;96993.28;;;14.09;50.29
73016;BME280;61893;50.074;14.440;2023-04-01T13:17:18;96997.78;;;13.57;52.81
73016;BME280;61893;50.074;14.440;2023-04-01T13:43:31;96998.25;;;13.98;53.12
73016;BME280;61893;50.074;14.440;2023-04-01T13:49:44;97001.88;;;14.17;52.37
73016;BME280;61893;50.074;14.440;2023-04-01T13:59:31;97001.53;;;14.01;52.03
73016;BME280;61893;50.074;14.440;2023-04-01T14:35:36;97005.19;;;12.95;56.54
73016;BME280;61893;50.074;14.440;2023-04-01T14:38:28;97017.91;;;12.93;57.25
73016;BME280;61893;50.074;14.440;2023-04-01T14:44:24;97018.94;;;12.98;56.43
73016;BME280;61893;50.074;14.440;2023-04-01T14:50:02;97033.69;;;12.88;57.36
73016;BME280;61893;50.074;14.440;2023-04-01T14:52:57;97020.13;;;12.76;57.85
73016;BME280;61893;50.074;14.440;2023-04-01T14:58:20;97023.19;;;12.53;58.51
73016;BME280;61893;50.074;14.440;2023-04-01T15:25:14;97038.88;;;12.21;60.56
73016;BME280;61893;50.074;14.440;2023-04-01T15:34:21;97050.09;;;12.03;60.63
73016;BME280;61893;50.074;14.440;2023-04-01T15:40:48;97053.66;;;11.82;61.88
73016;BME280;61893;50.074;14.440;2023-04-01T15:44:24;97056.09;;;11.84;62.76
73016;BME280;61893;50.074;14.440;2023-04-01T15:47:33;97056.03;;;11.70;63.38
73016;BME280;61893;50.074;14.440;2023-04-01T15:54:23;97063.81;;;11.72;64.34
73016;BME280;61893;50.074;14.440;2023-04-01T16:15:25;97073.91;;;11.48;64.83
73016;BME280;61893;50.074;14.440;2023-04-01T16:27:46;97082.84;;;11.41;62.87
73016;BME280;61893;50.074;14.440;2023-04-01T16:40:22;97099.00;;;11.11;62.83
73016;BME280;61893;50.074;14.440;2023-04-01T16:43:28;97095.41;;;11.19;62.25
73016;BME280;61893;50.074;14.440;2023-04-01T16:46:39;97093.25;;;11.08;62.48
73016;BME280;61893;50.074;14.440;2023-04-01T16:50:05;97104.94;;;10.92;62.93
73016;BME280;61893;50.074;14.440;2023-04-01T16:59:21;97112.56;;;10.58;65.93
73016;BME280;61893;50.074;14.440;2023-04-01T17:02:59;97118.47;;;10.54;66.59
73016;BME280;61893;50.074;14.440;2023-04-01T17:17:05;97128.56;;;10.14;69.60
73016;BME280;61893;50.074;14.440;2023-04-01T17:20:14;97140.38;;;10.11;70.26
73016;BME280;61893;50.074;14.440;2023-04-01T17:26:12;97147.38;;;10.27;70.29
73016;BME280;61893;50.074;14.440;2023-04-01T17:48:03;97174.00;;;10.04;74.39
73016;BME280;61893;50.074;14.440;2023-04-01T17:50:52;97172.19;;;10.05;74.30
73016;BME280;61893;50.074;14.440;2023-04-01T18:00:03;97191.03;;;9.80;76.23
73016;BME280;61893;50.074;14.440;2023-04-01T18:02:51;97194.41;;;9.74;76.27
73016;BME280;61893;50.074;14.440;2023-04-01T18:15:00;97208.97;;;9.78;76.64
73016;BME280;61893;50.074;14.440;2023-04-01T18:23:53;97217.44;;;9.59;77.43
73016;BME280;61893;50.074;14.440;2023-04-01T18:29:52;97227.38;;;9.80;76.35
73016;BME280;61893;50.074;14.440;2023-04-01T18:32:44;97223.69;;;9.66;77.53
73016;BME280;61893;50.074;14.440;2023-04-01T18:36:21;97231.22;;;9.77;77.19
73016;BME280;61893;50.074;14.440;2023-04-01T18:38:39;97232.19;;;9.84;77.21
73016;BME280;61893;50.074;14.440;2023-04-01T18:47:38;97244.16;;;9.57;78.41
73016;BME280;61893;50.074;14.440;2023-04-01T18:50:56;97246.31;;;9.62;78.28
73016;BME280;61893;50.074;14.440;2023-04-01T18:56:34;97260.19;;;9.41;79.29
73016;BME280;61893;50.074;14.440;2023-04-01T18:59:23;97253.59;;;9.37;79.75
73016;BME280;61893;50.074;14.440;2023-04-01T19:25:54;97266.56;;;9.00;81.68
73016;BME280;61893;50.074;14.440;2023-04-01T19:38:26;97276.81;;;9.12;81.54
73016;BME280;61893;50.074;14.440;2023-04-01T19:42:11;97278.66;;;9.03;82.06
73016;BME280;61893;50.074;14.440;2023-04-01T19:54:37;97284.47;;;8.98;82.56
73016;BME280;61893;50.074;14.440;2023-04-01T19:58:33;97288.59;;;9.09;82.04
73016;BME280;61893;50.074;14.440;2023-04-01T20:02:27;97289.66;;;8.92;83.23
73016;BME280;61893;50.074;14.440;2023-04-01T20:08:22;97294.81;;;8.93;83.50
73016;BME280;61893;50.074;14.440;2023-04-01T20:11:21;97290.69;;;8.91;83.75
73016;BME280;61893;50.074;14.440;2023-04-01T20:17:11;97293.28;;;8.99;83.12
73016;BME280;61893;50.074;14.440;2023-04-01T20:26:25;97310.06;;;8.91;83.76
73016;BME280;61893;50.074;14.440;2023-04-01T20:32:34;97315.03;;;8.94;83.75
73016;BME280;61893;50.074;14.440;2023-04-01T20:38:58;97319.41;;;8.71;85.37
73016;BME280;61893;50.074;14.440;2023-04-01T20:51:25;97314.09;;;8.79;84.88
73016;BME280;61893;50.074;14.440;2023-04-01T20:58:25;97316.81;;;8.54;86.21
73016;BME280;61893;50.074;14.440;2023-04-01T21:09:35;97323.44;;;8.59;86.84
73016;BME280;61893;50.074;14.440;2023-04-01T21:45:02;97350.59;;;8.52;87.52
73016;BME280;61893;50.074;14.440;2023-04-01T21:51:42;97350.94;;;8.33;88.19
73016;BME280;61893;50.074;14.440;2023-04-01T22:04:41;97353.25;;;8.61;86.73
73016;BME280;61893;50.074;14.440;2023-04-01T22:13:20;97364.53;;;8.54;86.67
73016;BME280;61893;50.074;14.440;2023-04-01T22:16:03;97366.84;;;8.57;87.20
73016;BME280;61893;50.074;14.440;2023-04-01T22:18:33;97367.66;;;8.66;86.76
73016;BME280;61893;50.074;14.440;2023-04-01T22:21:17;97371.63;;;8.70;86.19
73016;BME280;61893;50.074;14.440;2023-04-01T22:24:16;97372.13;;;8.74;85.92
73016;BME280;61893;50.074;14.440;2023-04-01T22:32:53;97376.75;;;8.72;86.18
73016;BME280;61893;50.074;14.440;2023-04-01T22:36:02;97374.28;;;8.78;85.99
73016;BME280;61893;50.074;14.440;2023-04-01T22:43:47;97378.59;;;8.71;86.27
73016;BME280;61893;50.074;14.440;2023-04-01T22:46:58;97376.75;;;8.72;85.87
73016;BME280;61893;50.074;14.440;2023-04-01T22:49:51;97377.44;;;8.66;86.89
73016;BME280;61893;50.074;14.440;2023-04-01T22:52:41;97381.56;;;8.68;86.33
73016;BME280;61893;50.074;14.440;2023-04-01T22:55:26;97379.88;;;8.75;86.28
73016;BME280;61893;50.074;14.440;2023-04-01T22:58:13;97382.72;;;8.74;86.33
73016;BME280;61893;50.074;14.440;2023-04-01T23:00:56;97383.53;;;8.83;86.02
73016;BME280;61893;50.074;14.440;2023-04-01T23:03:31;97392.03;;;8.62;86.58
73016;BME280;61893;50.074;14.440;2023-04-01T23:06:23;97389.06;;;8.56;87.31
73016;BME280;61893;50.074;14.440;2023-04-01T23:09:28;97398.00;;;8.47;88.00
73016;BME280;61893;50.074;14.440;2023-04-01T23:12:10;97397.50;;;8.52;87.78
73016;BME280;61893;50.074;14.440;2023-04-01T23:15:01;97396.66;;;8.60;87.38
73016;BME280;61893;50.074;14.440;2023-04-01T23:18:21;97400.28;;;8.75;87.35
73016;BME280;61893;50.074;14.440;2023-04-01T23:20:58;97395.97;;;8.82;86.92
73016;BME280;61893;50.074;14.440;2023-04-01T23:29:39;97404.91;;;8.81;86.36
73016;BME280;61893;50.074;14.440;2023-04-01T23:32:17;97411.22;;;8.88;86.17
73016;BME280;61893;50.074;14.440;2023-04-01T23:34:49;97410.03;;;8.99;86.13
73016;BME280;61893;50.074;14.440;2023-04-01T23:37:17;97415.38;;;8.58;87.71
73016;BME280;61893;50.074;14.440;2023-04-01T23:40:29;97424.50;;;8.72;87.09
73016;BME280;61893;50.074;14.440;2023-04-01T23:42:57;97421.81;;;8.80;87.10
73016;BME280;61893;50.074;14.440;2023-04-01T23:45:45;97423.81;;;8.78;87.04
73016;BME280;61893;50.074;14.440;2023-04-01T23:48:17;97425.16;;;8.82;86.60
73016;BME280;61893;50.074;14.440;2023-04-01T23:50:56;97428.75;;;8.97;86.37
73016;BME280;61893;50.074;14.440;2023-04-01T23:54:14;97434.75;;;8.83;87.19
73016;BME280;61893;50.074;14.440;2023-04-01T23:57:10;97433.56;;;8.94;87.01
